Time;durP1;ratioP1;P1;durP2;ratioP2;P2;SDS_P1;SDS_P2;PMS_P1;PMS_P2;Temp;Humidity;BMP_temperature;BMP_pressure;BME280_temperature;BME280_humidity;BME280_pressure;Samples;Min_cycle;Max_cycle;Signal;HPM_P1;HPM_P2
2022/09/21 00:00:36;;;;;;;1.50;0.73;;;;;;;12.41;75.58;102794.47;5052323;27;96443;-30
2022/09/21 00:03:02;;;;;;;0.68;0.50;;;;;;;12.38;75.54;102779.16;5033840;27;96830;-30
2022/09/21 00:05:27;;;;;;;2.90;0.77;;;;;;;12.40;75.68;102773.69;5052075;27;96821;-31
2022/09/21 00:07:53;;;;;;;2.13;0.82;;;;;;;12.37;75.29;102780.13;5033668;27;100644;-30
2022/09/21 00:10:20;;;;;;;1.52;0.63;;;;;;;12.39;75.74;102783.66;5051948;27;96505;-30
2022/09/21 00:12:47;;;;;;;3.72;0.90;;;;;;;12.40;75.80;102777.28;5052224;27;96773;-30
2022/09/21 00:15:14;;;;;;;1.92;0.75;;;;;;;12.39;75.99;102780.03;5033340;27;98960;-30
2022/09/21 00:17:40;;;;;;;0.90;0.65;;;;;;;12.36;76.05;102772.91;5051684;27;97944;-30
2022/09/21 00:20:06;;;;;;;1.05;0.60;;;;;;;12.39;76.02;102777.31;5054373;27;96711;-31
2022/09/21 00:22:32;;;;;;;0.63;0.47;;;;;;;12.38;75.89;102776.44;5037167;27;97058;-31
2022/09/21 00:24:57;;;;;;;2.22;0.98;;;;;;;12.38;75.93;102778.28;5036893;27;100692;-30
2022/09/21 00:27:28;;;;;;;1.48;0.68;;;;;;;12.36;76.18;102775.63;5055362;27;97287;-31
2022/09/21 00:30:02;;;;;;;2.80;0.75;;;;;;;12.33;76.63;102771.19;5037192;27;96860;-31
2022/09/21 00:32:30;;;;;;;3.88;0.70;;;;;;;12.38;76.45;102778.28;5055180;27;96675;-31
2022/09/21 00:34:56;;;;;;;1.27;0.63;;;;;;;12.35;76.46;102772.94;5055094;27;97961;-30
2022/09/21 00:37:22;;;;;;;1.73;0.93;;;;;;;12.34;76.15;102766.63;5037127;27;101866;-31
2022/09/21 00:39:48;;;;;;;3.38;0.90;;;;;;;12.33;76.46;102776.63;5037021;27;96610;-32
2022/09/21 00:42:26;;;;;;;3.67;1.27;;;;;;;12.32;76.66;102774.88;5055550;27;96849;-30
2022/09/21 00:44:51;;;;;;;1.85;0.57;;;;;;;12.35;76.44;102786.53;5035795;27;101396;-31
2022/09/21 00:47:39;;;;;;;1.95;0.68;;;;;;;12.32;76.97;102780.31;5055104;27;97439;-31
2022/09/21 00:50:16;;;;;;;1.02;0.63;;;;;;;12.31;76.96;102778.50;5055002;27;96871;-31
2022/09/21 00:52:48;;;;;;;4.57;0.82;;;;;;;12.32;77.30;102779.38;5055246;27;96642;-32
2022/09/21 00:55:30;;;;;;;1.92;0.82;;;;;;;12.30;76.86;102784.03;5036174;27;101462;-30
2022/09/21 00:58:00;;;;;;;1.70;0.68;;;;;;;12.27;77.04;102776.84;5036494;27;101027;-31
2022/09/21 01:00:26;;;;;;;0.35;0.25;;;;;;;12.26;77.00;102785.94;5055092;27;96572;-31
2022/09/21 01:02:53;;;;;;;0.70;0.50;;;;;;;12.23;76.87;102774.31;5055026;27;96987;-30
2022/09/21 01:05:19;;;;;;;1.83;0.80;;;;;;;12.22;77.04;102773.41;5036332;27;100854;-30
2022/09/21 01:07:46;;;;;;;0.47;0.40;;;;;;;12.23;77.23;102780.63;5054734;27;97782;-32
2022/09/21 01:10:15;;;;;;;1.33;0.77;;;;;;;12.18;77.40;102770.88;5036121;27;97662;-30
2022/09/21 01:13:10;;;;;;;1.45;0.82;;;;;;;12.18;77.59;102779.03;5054504;27;96610;-32
2022/09/21 01:15:44;;;;;;;0.65;0.40;;;;;;;12.13;77.29;102776.47;5026486;27;98252;-32
2022/09/21 01:18:40;;;;;;;3.33;0.43;;;;;;;12.11;77.54;102771.13;5036126;27;100898;-30
2022/09/21 01:21:37;;;;;;;1.27;0.70;;;;;;;12.07;77.75;102768.56;5036260;27;96677;-31
2022/09/21 01:24:37;;;;;;;0.70;0.52;;;;;;;12.05;77.53;102768.63;5034499;27;96863;-31
2022/09/21 01:27:15;;;;;;;0.90;0.52;;;;;;;12.00;77.46;102776.03;5035646;27;100916;-31
2022/09/21 01:29:56;;;;;;;3.03;0.80;;;;;;;11.96;77.67;102768.94;5035621;27;100999;-30
2022/09/21 01:32:30;;;;;;;0.50;0.30;;;;;;;11.91;77.42;102765.53;5036300;27;97052;-31
2022/09/21 01:35:02;;;;;;;2.25;0.75;;;;;;;11.89;77.47;102775.53;5053947;27;96835;-31
2022/09/21 01:37:45;;;;;;;1.02;0.68;;;;;;;11.87;77.85;102774.75;5035521;27;101046;-31
2022/09/21 01:40:18;;;;;;;3.60;0.52;;;;;;;11.83;77.71;102779.34;5035704;27;101494;-30
2022/09/21 01:42:46;;;;;;;1.17;0.50;;;;;;;11.82;77.75;102776.66;5035889;27;96609;-30
2022/09/21 01:45:16;;;;;;;0.63;0.50;;;;;;;11.77;77.58;102776.84;5035622;27;98039;-31
2022/09/21 01:47:45;;;;;;;0.50;0.50;;;;;;;11.75;77.91;102778.75;5035725;27;102014;-31
2022/09/21 01:50:12;;;;;;;2.45;1.38;;;;;;;11.72;77.97;102777.94;5053978;27;96943;-30
2022/09/21 01:52:47;;;;;;;1.33;0.75;;;;;;;11.72;77.83;102783.38;5054042;27;96516;-30
2022/09/21 01:55:19;;;;;;;2.38;0.93;;;;;;;11.65;77.84;102783.59;5036099;27;96727;-30
2022/09/21 01:57:55;;;;;;;;;;;;;;;11.63;78.27;102777.34;5035748;27;99273;-33
2022/09/21 02:00:21;;;;;;;1.33;0.55;;;;;;;11.61;78.20;102778.34;5035622;27;101052;-30
2022/09/21 02:02:46;;;;;;;2.42;0.55;;;;;;;11.58;78.09;102775.72;5035105;27;96963;-33
2022/09/21 02:05:15;;;;;;;1.48;0.80;;;;;;;11.53;77.95;102773.16;5053901;27;96836;-33
2022/09/21 02:07:41;;;;;;;1.15;0.65;;;;;;;11.50;77.70;102766.97;5053513;27;99277;-30
2022/09/21 02:10:12;;;;;;;1.20;0.57;;;;;;;11.48;77.75;102772.44;5035394;27;101046;-30
2022/09/21 02:12:38;;;;;;;1.25;0.70;;;;;;;11.46;77.96;102782.44;5035223;27;96521;-30
2022/09/21 02:15:04;;;;;;;4.75;0.70;;;;;;;11.43;78.13;102777.13;5053805;27;96777;-31
2022/09/21 02:17:45;;;;;;;0.85;0.68;;;;;;;11.39;78.15;102775.47;5035241;27;98950;-30
2022/09/21 02:20:18;;;;;;;0.52;0.47;;;;;;;11.36;78.12;102773.75;5034898;27;101034;-31
2022/09/21 02:23:18;;;;;;;1.00;0.65;;;;;;;11.33;78.13;102771.13;5053584;27;96599;-31
2022/09/21 02:25:58;;;;;;;0.43;0.40;;;;;;;11.30;78.13;102775.75;5035210;27;96607;-31
2022/09/21 02:28:44;;;;;;;1.23;0.50;;;;;;;11.27;78.09;102768.63;5034397;27;101286;-31
2022/09/21 02:31:34;;;;;;;2.28;0.47;;;;;;;11.25;78.55;102776.84;5034869;27;98933;-30
2022/09/21 02:34:16;;;;;;;3.13;0.60;;;;;;;11.23;78.19;102781.41;5035265;27;96722;-31
2022/09/21 02:36:44;;;;;;;1.25;0.63;;;;;;;11.21;78.26;102775.16;5053283;27;96648;-30
2022/09/21 02:39:16;;;;;;;1.27;0.68;;;;;;;11.20;78.30;102775.19;5034908;27;101646;-31
2022/09/21 02:42:09;;;;;;;1.30;0.57;;;;;;;11.19;78.29;102779.72;5034611;27;101059;-31
2022/09/21 02:44:48;;;;;;;1.05;0.73;;;;;;;11.20;78.74;102776.09;5053260;27;96577;-31
2022/09/21 02:47:20;;;;;;;1.40;0.88;;;;;;;11.22;78.01;102774.19;5054139;27;96654;-31
2022/09/21 02:49:53;;;;;;;1.02;0.60;;;;;;;11.17;78.45;102764.44;5034413;27;100992;-30
2022/09/21 02:52:20;;;;;;;1.52;0.63;;;;;;;11.15;78.30;102761.78;5053240;27;97796;-31
2022/09/21 02:54:50;;;;;;;1.35;0.68;;;;;;;11.16;78.81;102762.69;5052529;27;96726;-30
2022/09/21 02:57:19;;;;;;;1.95;0.50;;;;;;;11.15;78.98;102767.19;5034533;27;97313;-31
2022/09/21 02:59:44;;;;;;;1.25;0.70;;;;;;;11.12;78.64;102772.72;5034876;27;100892;-30
2022/09/21 03:02:11;;;;;;;0.77;0.60;;;;;;;11.10;78.49;102769.19;5034500;27;99403;-30
2022/09/21 03:04:40;;;;;;;0.40;0.30;;;;;;;11.08;78.45;102772.88;5034546;27;96663;-30
2022/09/21 03:07:06;;;;;;;1.00;0.60;;;;;;;11.05;78.72;102771.16;5052772;27;96800;-31
2022/09/21 03:09:31;;;;;;;1.80;0.68;;;;;;;11.09;78.93;102777.38;5034396;27;100998;-31
2022/09/21 03:11:57;;;;;;;1.75;0.63;;;;;;;11.09;78.68;102783.69;5053003;27;97966;-30
2022/09/21 03:14:22;;;;;;;1.52;0.90;;;;;;;11.03;78.79;102776.63;5052737;27;96540;-30
2022/09/21 03:16:47;;;;;;;1.08;0.65;;;;;;;11.02;78.60;102791.13;5052315;27;96821;-32
2022/09/21 03:19:14;;;;;;;1.88;0.52;;;;;;;10.99;78.82;102784.94;5051638;27;103993;-30
2022/09/21 03:21:40;;;;;;;4.45;0.80;;;;;;;10.97;78.77;102787.69;5034537;27;101167;-31
2022/09/21 03:24:05;;;;;;;1.40;0.65;;;;;;;10.93;78.81;102782.41;5034229;27;96576;-30
2022/09/21 03:26:31;;;;;;;2.15;0.80;;;;;;;10.92;78.81;102780.66;5052800;27;96902;-32
2022/09/21 03:28:57;;;;;;;1.25;0.70;;;;;;;10.90;78.91;102783.41;5051952;27;100024;-32
2022/09/21 03:31:22;;;;;;;1.90;0.65;;;;;;;10.87;79.10;102778.06;5052090;27;99493;-31
2022/09/21 03:33:48;;;;;;;1.00;0.50;;;;;;;10.85;79.05;102785.38;5052607;27;96610;-31
2022/09/21 03:36:14;;;;;;;1.48;0.68;;;;;;;10.86;79.02;102791.69;5034591;27;96924;-31
2022/09/21 03:38:39;;;;;;;0.93;0.40;;;;;;;10.81;78.89;102787.28;5052425;27;97912;-30
2022/09/21 03:41:05;;;;;;;5.28;1.00;;;;;;;10.79;78.93;102785.56;5052422;27;97313;-31
2022/09/21 03:43:30;;;;;;;2.75;0.90;;;;;;;10.74;79.16;102787.53;5052025;27;96520;-30
2022/09/21 03:45:56;;;;;;;1.67;0.77;;;;;;;10.75;78.92;102794.69;5052294;27;96844;-31
2022/09/21 03:48:22;;;;;;;0.68;0.47;;;;;;;10.72;79.03;102789.38;5052425;27;97867;-31
2022/09/21 03:50:47;;;;;;;1.27;0.45;;;;;;;10.70;79.21;102793.97;5052197;27;98244;-31
2022/09/21 03:53:13;;;;;;;0.57;0.50;;;;;;;10.68;79.25;102794.03;5052729;27;96484;-31
2022/09/21 03:55:39;;;;;;;1.70;0.90;;;;;;;10.68;79.18;102798.53;5037474;27;96724;-30
2022/09/21 03:58:06;;;;;;;1.00;0.68;;;;;;;10.63;78.97;102790.56;5037366;27;101239;-30
2022/09/21 04:00:31;;;;;;;1.17;0.63;;;;;;;10.58;79.36;102790.72;5037675;27;101475;-31
2022/09/21 04:02:57;;;;;;;1.90;0.85;;;;;;;10.55;78.96;102781.78;5037449;27;96674;-31
2022/09/21 04:05:23;;;;;;;1.00;0.60;;;;;;;10.57;79.13;102796.16;5055865;27;96838;-32
2022/09/21 04:07:49;;;;;;;0.90;0.50;;;;;;;10.55;79.11;102785.38;5036717;27;101091;-32
2022/09/21 04:10:18;;;;;;;4.15;0.50;;;;;;;10.55;79.07;102781.78;5055765;27;98090;-31
2022/09/21 04:12:44;;;;;;;1.02;0.70;;;;;;;10.52;78.97;102785.47;5055138;27;96797;-31
2022/09/21 04:15:18;;;;;;;1.27;0.70;;;;;;;10.51;78.97;102789.13;5037081;27;96903;-32
2022/09/21 04:17:44;;;;;;;2.05;0.85;;;;;;;10.47;79.08;102790.13;5055679;27;97773;-30
2022/09/21 04:20:09;;;;;;;1.75;0.50;;;;;;;10.44;79.14;102784.81;5036530;27;100985;-30
2022/09/21 04:22:35;;;;;;;0.93;0.50;;;;;;;10.42;79.32;102783.97;5055624;27;96745;-31
2022/09/21 04:25:02;;;;;;;1.25;0.47;;;;;;;10.41;79.39;102788.47;5037455;27;96880;-31
2022/09/21 04:27:28;;;;;;;1.83;0.80;;;;;;;10.37;79.11;102785.94;5036627;27;101204;-32
2022/09/21 04:29:53;;;;;;;1.35;0.73;;;;;;;10.37;79.33;102789.53;5054993;27;99509;-32
2022/09/21 04:32:19;;;;;;;1.75;0.60;;;;;;;10.34;79.20;102781.47;5054642;27;96678;-31
2022/09/21 04:34:44;;;;;;;2.70;0.77;;;;;;;10.35;79.49;102788.69;5055508;27;96769;-30
2022/09/21 04:37:12;;;;;;;1.02;0.65;;;;;;;10.34;79.54;102791.44;5054887;27;109034;-30
2022/09/21 04:39:38;;;;;;;1.02;0.70;;;;;;;10.32;79.51;102786.06;5055177;27;97863;-30
2022/09/21 04:42:04;;;;;;;1.33;0.70;;;;;;;10.29;79.40;102785.25;5055251;27;96494;-31
2022/09/21 04:44:30;;;;;;;0.65;0.43;;;;;;;10.32;79.46;102786.06;5055068;27;96845;-31
2022/09/21 04:46:56;;;;;;;1.05;0.60;;;;;;;10.31;79.37;102784.28;5055317;27;97278;-31
2022/09/21 04:49:22;;;;;;;1.13;0.70;;;;;;;10.32;79.51;102791.50;5055198;27;99127;-31
2022/09/21 04:51:47;;;;;;;1.70;0.55;;;;;;;10.32;79.57;102790.56;5055325;27;96644;-31
2022/09/21 04:54:13;;;;;;;1.13;0.60;;;;;;;10.33;79.69;102790.53;5055120;27;96782;-30
2022/09/21 04:56:38;;;;;;;1.90;0.70;;;;;;;10.33;79.57;102786.94;5053909;27;105023;-30
2022/09/21 04:59:03;;;;;;;1.27;0.95;;;;;;;10.37;79.78;102797.66;5054790;27;97802;-30
2022/09/21 05:01:29;;;;;;;1.42;0.90;;;;;;;10.35;80.17;102782.38;5054897;27;96785;-31
2022/09/21 05:03:54;;;;;;;0.77;0.63;;;;;;;10.40;80.59;102794.84;5054937;27;96796;-32
2022/09/21 05:06:19;;;;;;;1.35;0.98;;;;;;;10.43;80.44;102793.88;5053254;27;99274;-32
2022/09/21 05:11:29;;;;;;;5.70;1.45;;;;;;;10.43;79.85;102791.16;5054841;27;96729;-31
2022/09/21 05:13:54;;;;;;;5.22;1.52;;;;;;;10.46;79.79;102792.88;5054641;27;96852;-32
2022/09/21 05:16:19;;;;;;;3.05;1.67;;;;;;;10.47;79.57;102792.84;5054640;27;97995;-32
2022/09/21 05:18:45;;;;;;;1.73;1.05;;;;;;;10.49;79.82;102791.00;5053905;27;97583;-30
2022/09/21 05:21:12;;;;;;;2.55;1.13;;;;;;;10.53;79.86;102799.91;5035761;27;97246;-30
2022/09/21 05:23:38;;;;;;;1.42;0.82;;;;;;;10.52;79.97;102796.31;5036352;27;96824;-31
2022/09/21 05:26:04;;;;;;;0.98;0.75;;;;;;;10.53;80.30;102802.59;5035789;27;101575;-31
2022/09/21 05:28:30;;;;;;;3.00;1.30;;;;;;;10.54;79.96;102799.88;5054220;27;97894;-30
2022/09/21 05:31:01;;;;;;;1.30;0.90;;;;;;;10.56;80.23;102799.81;5036005;27;97400;-30
2022/09/21 05:33:29;;;;;;;3.72;1.55;;;;;;;10.54;80.23;102791.72;5054603;27;96756;-31
2022/09/21 05:36:16;;;;;;;1.50;1.08;;;;;;;10.57;80.00;102807.00;5035862;27;100938;-31
2022/09/21 05:38:42;;;;;;;4.00;1.05;;;;;;;10.54;79.94;102802.56;5054437;27;97897;-31
2022/09/21 05:41:08;;;;;;;2.80;1.50;;;;;;;10.55;80.11;102798.91;5036019;27;96585;-30
2022/09/21 05:43:33;;;;;;;1.52;0.98;;;;;;;10.58;80.21;102804.25;5054325;27;96789;-31
2022/09/21 05:46:11;;;;;;;0.98;0.75;;;;;;;10.57;80.05;102799.75;5053812;27;98070;-32
2022/09/21 05:48:46;;;;;;;3.72;1.50;;;;;;;10.59;80.35;102799.72;5035666;27;101222;-31
2022/09/21 05:51:34;;;;;;;3.63;1.55;;;;;;;10.60;80.35;102801.50;5035706;27;96643;-30
2022/09/21 05:54:08;;;;;;;3.90;1.75;;;;;;;10.61;80.14;102800.56;5035935;27;96678;-31
2022/09/21 05:56:41;;;;;;;10.40;2.22;;;;;;;10.64;80.17;102805.88;5053629;27;99371;-30
2022/09/21 05:59:25;;;;;;;3.83;2.20;;;;;;;10.66;80.18;102812.16;5054061;27;97608;-30
2022/09/21 06:01:58;;;;;;;7.80;2.40;;;;;;;10.65;80.40;102809.47;5054169;27;96584;-31
2022/09/21 06:04:24;;;;;;;7.43;2.75;;;;;;;10.68;80.17;102815.72;5054210;27;96718;-31
2022/09/21 06:06:49;;;;;;;4.55;2.38;;;;;;;10.69;80.81;102822.00;5054168;27;97401;-30
2022/09/21 06:09:14;;;;;;;5.57;2.53;;;;;;;10.70;80.23;102821.97;5053680;27;99278;-31
2022/09/21 06:11:40;;;;;;;5.47;2.47;;;;;;;10.72;80.44;102819.19;5053333;27;97165;-31
2022/09/21 06:14:05;;;;;;;7.82;3.17;;;;;;;10.74;79.94;102815.50;5053289;27;101481;-30
2022/09/21 06:16:41;;;;;;;9.73;3.83;;;;;;;10.76;80.11;102818.19;5052864;27;99220;-31
2022/09/21 06:19:10;;;;;;;13.75;2.67;;;;;;;10.79;79.75;102823.50;5034557;27;100897;-30
2022/09/21 06:21:36;;;;;;;6.13;2.67;;;;;;;10.81;79.96;102825.22;5035332;27;96606;-30
2022/09/21 06:24:02;;;;;;;7.22;2.15;;;;;;;10.83;80.28;102822.47;5053564;27;96934;-31
2022/09/21 06:26:27;;;;;;;6.20;1.40;;;;;;;10.83;79.98;102820.66;5034957;27;100990;-32
2022/09/21 06:28:53;;;;;;;7.05;1.52;;;;;;;10.87;79.97;102821.47;5053701;27;97820;-30
2022/09/21 06:31:19;;;;;;;5.53;1.80;;;;;;;10.87;80.00;102826.88;5035263;27;96590;-30
2022/09/21 06:33:44;;;;;;;3.53;1.38;;;;;;;10.91;80.07;102824.94;5053213;27;96923;-30
2022/09/21 06:36:09;;;;;;;2.15;1.02;;;;;;;10.94;80.41;102823.03;5052536;27;103872;-31
2022/09/21 06:38:35;;;;;;;3.45;1.48;;;;;;;10.97;80.11;102820.22;5053413;27;96657;-31
2022/09/21 06:41:02;;;;;;;2.05;1.27;;;;;;;11.02;80.16;102833.63;5053045;27;96747;-31
2022/09/21 06:43:28;;;;;;;4.55;1.40;;;;;;;11.05;80.11;102825.41;5034948;27;96855;-35
2022/09/21 06:45:55;;;;;;;2.38;1.20;;;;;;;11.10;79.96;102830.69;5053102;27;97685;-30
2022/09/21 06:48:21;;;;;;;2.20;1.27;;;;;;;11.14;79.94;102835.06;5034603;27;101289;-31
2022/09/21 06:50:47;;;;;;;4.18;1.50;;;;;;;11.21;80.06;102833.94;5034861;27;96575;-31
2022/09/21 06:53:13;;;;;;;2.05;1.40;;;;;;;11.31;79.78;102831.81;5053326;27;96827;-30
2022/09/21 06:55:39;;;;;;;1.92;1.25;;;;;;;11.44;79.51;102830.44;5034319;27;101258;-30
2022/09/21 06:58:04;;;;;;;2.45;1.40;;;;;;;11.56;79.49;102832.78;5052902;27;99298;-30
2022/09/21 07:00:31;;;;;;;7.90;1.70;;;;;;;11.62;78.89;102831.69;5052473;27;100107;-31
2022/09/21 07:02:56;;;;;;;2.92;1.25;;;;;;;11.75;78.78;102832.13;5034634;27;97054;-30
2022/09/21 07:05:21;;;;;;;3.15;1.77;;;;;;;11.85;78.82;102828.19;5052999;27;97971;-30
2022/09/21 07:07:47;;;;;;;5.95;1.60;;;;;;;11.97;79.08;102827.78;5052698;27;101985;-30
2022/09/21 07:10:12;;;;;;;2.75;1.25;;;;;;;12.08;78.34;102822.84;5052708;27;96884;-30
2022/09/21 07:12:37;;;;;;;2.78;1.73;;;;;;;12.21;78.13;102834.16;5052876;27;96776;-30
2022/09/21 07:15:05;;;;;;;2.85;1.80;;;;;;;12.25;77.44;102833.09;5052774;27;98311;-31
2022/09/21 07:17:35;;;;;;;2.28;1.33;;;;;;;12.30;78.12;102836.53;5034643;27;100771;-30
2022/09/21 07:20:01;;;;;;;5.72;2.05;;;;;;;12.44;78.45;102841.47;5033705;27;96833;-30
2022/09/21 07:22:32;;;;;;;3.15;1.52;;;;;;;12.48;77.96;102834.94;5034467;27;96862;-31
2022/09/21 07:24:57;;;;;;;1.80;1.20;;;;;;;12.53;77.58;102832.06;5033671;27;101734;-31
2022/09/21 07:27:29;;;;;;;4.07;1.05;;;;;;;12.61;76.49;102835.38;5051775;27;99373;-30
2022/09/21 07:29:54;;;;;;;2.83;1.33;;;;;;;12.68;76.96;102830.56;5033812;27;96776;-31
2022/09/21 07:32:20;;;;;;;1.63;1.10;;;;;;;12.72;76.10;102830.41;5052489;27;96877;-31
2022/09/21 07:34:45;;;;;;;2.50;1.17;;;;;;;12.82;75.98;102832.75;5052111;27;99367;-31
2022/09/21 07:37:11;;;;;;;2.00;1.05;;;;;;;12.93;75.96;102831.38;5052166;27;98025;-31
2022/09/21 07:39:37;;;;;;;3.42;1.00;;;;;;;13.03;75.13;102825.59;5034180;27;96670;-31
2022/09/21 07:42:04;;;;;;;1.80;1.02;;;;;;;13.14;74.62;102826.94;5052977;27;96783;-33
2022/09/21 07:44:29;;;;;;;2.65;0.95;;;;;;;13.31;74.39;102826.28;5033840;27;102092;-32
2022/09/21 07:46:55;;;;;;;4.25;1.10;;;;;;;13.42;74.15;102830.38;5052479;27;96636;-30
2022/09/21 07:49:20;;;;;;;1.55;0.77;;;;;;;13.57;73.89;102836.06;5051857;27;96496;-31
2022/09/21 07:51:45;;;;;;;2.85;1.17;;;;;;;13.73;72.91;102832.69;5052136;27;96883;-30
2022/09/21 07:54:11;;;;;;;1.50;1.00;;;;;;;13.87;72.40;102829.38;5052075;27;97947;-30
2022/09/21 07:56:37;;;;;;;2.35;1.30;;;;;;;13.98;72.14;102827.06;5033785;27;101498;-32
2022/09/21 07:59:06;;;;;;;2.47;1.00;;;;;;;14.15;71.69;102832.63;5052011;27;96492;-31
2022/09/21 08:01:36;;;;;;;2.83;1.25;;;;;;;14.33;71.48;102827.34;5052205;27;96754;-30
2022/09/21 08:04:04;;;;;;;4.75;0.90;;;;;;;14.45;70.59;102834.94;5051891;27;99417;-31
2022/09/21 08:06:31;;;;;;;2.80;0.65;;;;;;;14.59;70.59;102829.78;5033871;27;100806;-31
2022/09/21 08:08:58;;;;;;;3.47;0.77;;;;;;;14.70;69.67;102825.66;5033900;27;96786;-30
2022/09/21 08:11:24;;;;;;;1.38;0.70;;;;;;;14.65;69.89;102828.59;5033822;27;96810;-31
2022/09/21 08:13:57;;;;;;;3.55;0.70;;;;;;;14.51;70.39;102831.03;5032919;27;101761;-30
2022/09/21 08:16:23;;;;;;;1.27;0.45;;;;;;;14.52;70.75;102828.25;5051759;27;97834;-31
2022/09/21 08:18:50;;;;;;;3.15;0.85;;;;;;;14.48;70.42;102836.66;5051376;27;96816;-30
2022/09/21 08:21:15;;;;;;;0.90;0.43;;;;;;;14.39;70.91;102836.09;5033641;27;96687;-29
2022/09/21 08:23:41;;;;;;;1.70;0.68;;;;;;;14.37;70.92;102835.31;5051995;27;97610;-31
2022/09/21 08:26:09;;;;;;;2.72;0.68;;;;;;;14.34;70.92;102840.88;5033553;27;100890;-31
2022/09/21 08:28:35;;;;;;;5.10;0.68;;;;;;;14.33;70.37;102840.97;5033367;27;96515;-30
2022/09/21 08:31:09;;;;;;;2.38;0.60;;;;;;;14.31;70.20;102843.75;5052539;27;96804;-30
2022/09/21 08:33:35;;;;;;;1.33;0.47;;;;;;;14.25;70.45;102838.56;5051702;27;98041;-30
2022/09/21 08:36:01;;;;;;;2.50;0.40;;;;;;;14.26;69.57;102842.19;5051788;27;97834;-30
2022/09/21 08:38:33;;;;;;;1.15;0.47;;;;;;;14.30;70.23;102842.00;5033029;27;97255;-30
2022/09/21 08:41:00;;;;;;;1.57;0.43;;;;;;;14.38;70.58;102844.34;5055183;27;96652;-30
2022/09/21 08:43:37;;;;;;;0.95;0.28;;;;;;;14.46;69.92;102842.16;5036690;27;100987;-29
2022/09/21 08:46:12;;;;;;;3.00;0.22;;;;;;;14.52;69.13;102841.88;5036384;27;101087;-31
2022/09/21 08:48:45;;;;;;;0.90;0.30;;;;;;;14.56;68.11;102845.38;5055242;27;96736;-30
2022/09/21 08:51:20;;;;;;;1.35;0.40;;;;;;;14.64;68.68;102848.66;5055441;27;96442;-30
2022/09/21 08:53:51;;;;;;;1.45;0.30;;;;;;;14.68;67.95;102839.34;5055073;27;98543;-31
2022/09/21 08:56:16;;;;;;;0.65;0.30;;;;;;;14.71;68.69;102846.53;5036963;27;101401;-30
2022/09/21 08:58:42;;;;;;;3.88;0.50;;;;;;;14.71;67.22;102850.13;5054956;27;96704;-30
2022/09/21 09:01:23;;;;;;;0.40;0.30;;;;;;;14.77;68.11;102848.94;5054873;27;96974;-30
2022/09/21 09:03:54;;;;;;;1.08;0.40;;;;;;;14.81;67.64;102856.91;5035978;27;101040;-31
2022/09/21 09:06:25;;;;;;;1.35;0.40;;;;;;;14.77;67.86;102849.81;5036350;27;101168;-30
2022/09/21 09:09:08;;;;;;;3.40;0.30;;;;;;;14.83;68.08;102854.13;5036459;27;96739;-31
2022/09/21 09:12:03;;;;;;;0.73;0.40;;;;;;;14.82;67.51;102857.78;5055044;27;96660;-30
2022/09/21 09:14:42;;;;;;;1.30;0.40;;;;;;;14.83;67.29;102852.28;5055166;27;97399;-30
2022/09/21 09:17:17;;;;;;;1.55;0.28;;;;;;;14.87;67.50;102855.72;5036122;27;100881;-30
2022/09/21 09:19:53;;;;;;;0.20;0.15;;;;;;;14.90;67.67;102860.16;5054214;27;96814;-32
2022/09/21 09:22:28;;;;;;;0.95;0.32;;;;;;;14.91;66.84;102861.94;5036785;27;96847;-30
2022/09/21 09:24:59;;;;;;;0.47;0.17;;;;;;;14.89;67.29;102853.81;5054704;27;97542;-30
2022/09/21 09:27:40;;;;;;;1.57;0.60;;;;;;;14.94;66.11;102865.41;5035754;27;100946;-30
2022/09/21 09:30:24;;;;;;;0.25;0.20;;;;;;;14.96;65.34;102859.88;5035671;27;96879;-29
2022/09/21 09:33:26;;;;;;;1.15;0.30;;;;;;;15.08;67.02;102854.69;5036096;27;96936;-30
2022/09/21 09:35:59;;;;;;;;;;;;;;;15.23;65.01;102865.84;5054144;27;99975;-34
2022/09/21 09:38:31;;;;;;;4.10;0.50;;;;;;;15.39;66.40;102863.25;5036034;27;101102;-31
2022/09/21 09:41:12;;;;;;;1.45;0.45;;;;;;;15.63;64.30;102861.13;5036093;27;96725;-31
2022/09/21 09:44:01;;;;;;;2.05;0.32;;;;;;;15.88;64.44;102855.34;5035823;27;96827;-31
2022/09/21 09:47:04;;;;;;;1.88;0.40;;;;;;;16.31;61.73;102858.53;5038644;27;98073;-31
2022/09/21 09:49:41;;;;;;;0.80;0.25;;;;;;;16.61;61.52;102855.09;5054552;27;97270;-30
2022/09/21 09:52:12;;;;;;;0.30;0.30;;;;;;;16.98;61.94;102845.75;5034971;27;96908;-31
2022/09/21 09:54:37;;;;;;;0.20;0.10;;;;;;;17.32;61.24;102850.16;5035897;27;96667;-30
2022/09/21 09:57:04;;;;;;;1.05;0.57;;;;;;;17.59;59.84;102847.69;5052956;27;99501;-30
2022/09/21 09:59:47;;;;;;;1.00;0.40;;;;;;;17.78;58.69;102852.03;5035437;27;101173;-30
2022/09/21 10:02:21;;;;;;;3.08;0.40;;;;;;;18.06;57.94;102843.06;5035685;27;96609;-31
2022/09/21 10:05:07;;;;;;;3.00;0.32;;;;;;;18.22;55.78;102841.13;5035634;27;96928;-30
2022/09/21 10:07:52;;;;;;;0.38;0.20;;;;;;;18.22;57.05;102852.13;5053667;27;98468;-29
2022/09/21 10:10:30;;;;;;;3.60;0.52;;;;;;;18.49;56.28;102851.34;5053978;27;96940;-30
2022/09/21 10:13:17;;;;;;;0.43;0.20;;;;;;;18.73;56.48;102846.16;5053548;27;96743;-29
2022/09/21 10:15:55;;;;;;;1.63;0.52;;;;;;;18.83;54.91;102844.66;5053729;27;96701;-30
2022/09/21 10:18:45;;;;;;;2.97;0.60;;;;;;;18.77;52.48;102846.91;5035310;27;101376;-30
2022/09/21 10:21:35;;;;;;;0.85;0.40;;;;;;;18.80;55.36;102847.56;5053651;27;97402;-30
2022/09/21 10:24:04;;;;;;;2.03;0.52;;;;;;;18.92;55.05;102845.03;5022208;27;97595;-30
2022/09/21 10:26:53;;;;;;;1.23;0.60;;;;;;;19.15;56.33;102849.00;5035281;27;97357;-29
2022/09/21 10:29:21;;;;;;;2.67;0.30;;;;;;;19.34;51.90;102837.69;5034712;27;101321;-30
2022/09/21 10:32:03;;;;;;;1.05;0.50;;;;;;;19.39;52.28;102839.13;5053593;27;97888;-31
2022/09/21 10:34:32;;;;;;;;;;;;;;;19.60;53.47;102844.16;5035473;27;96793;-30
2022/09/21 10:36:59;;;;;;;1.42;0.50;;;;;;;19.58;51.28;102835.13;5034402;27;96911;-31
2022/09/21 10:39:27;;;;;;;2.83;0.30;;;;;;;19.78;52.80;102837.41;5052833;27;98720;-30
2022/09/21 10:41:55;;;;;;;3.13;0.52;;;;;;;20.00;51.70;102836.84;5035123;27;100973;-29
2022/09/21 10:44:24;;;;;;;0.75;0.40;;;;;;;20.14;51.38;102833.09;5035244;27;96617;-29
2022/09/21 10:46:51;;;;;;;0.50;0.30;;;;;;;20.21;52.55;102833.53;5034728;27;96530;-34
2022/09/21 10:49:26;;;;;;;1.15;0.32;;;;;;;20.44;51.22;102821.78;5034383;27;101086;-32
2022/09/21 10:51:56;;;;;;;1.50;0.47;;;;;;;20.62;50.64;102826.97;5034966;27;100432;-33
2022/09/21 10:54:25;;;;;;;0.80;0.30;;;;;;;20.77;50.66;102812.09;5034954;27;96630;-30
2022/09/21 10:56:58;;;;;;;1.63;0.43;;;;;;;20.84;48.42;102815.28;5053041;27;96770;-29
2022/09/21 10:59:30;;;;;;;0.50;0.20;;;;;;;20.97;51.65;102821.63;5034655;27;101173;-30
2022/09/21 11:01:57;;;;;;;4.25;0.40;;;;;;;21.05;49.26;102818.31;5053160;27;97826;-30
2022/09/21 11:04:31;;;;;;;3.35;0.63;;;;;;;21.13;48.50;102822.25;5052918;27;96585;-30
2022/09/21 11:07:20;;;;;;;4.25;0.40;;;;;;;20.82;48.80;102817.25;5035115;27;96849;-30
2022/09/21 11:10:04;;;;;;;1.17;0.25;;;;;;;20.47;47.84;102823.41;5034261;27;100852;-31
2022/09/21 11:12:51;;;;;;;1.13;0.40;;;;;;;20.31;48.77;102821.78;5052329;27;99339;-30
2022/09/21 11:15:32;;;;;;;0.40;0.10;;;;;;;20.10;51.49;102817.81;5052410;27;97001;-30
2022/09/21 11:18:03;;;;;;;0.40;0.13;;;;;;;19.71;50.40;102817.75;5034521;27;96877;-30
2022/09/21 11:20:34;;;;;;;6.00;0.32;;;;;;;20.01;51.29;102821.19;5052402;27;99515;-30
2022/09/21 11:23:20;;;;;;;0.10;0.10;;;;;;;20.07;51.11;102818.00;5052650;27;97919;-29
2022/09/21 11:25:56;;;;;;;0.52;0.22;;;;;;;20.27;48.74;102813.84;5034494;27;96780;-31
2022/09/21 11:28:28;;;;;;;1.02;0.40;;;;;;;20.54;48.73;102814.59;5052705;27;96629;-31
2022/09/21 11:31:16;;;;;;;1.35;0.35;;;;;;;20.74;50.91;102810.44;5034255;27;101064;-30
2022/09/21 11:33:48;;;;;;;1.30;0.30;;;;;;;20.87;49.20;102810.41;5034489;27;100692;-30
2022/09/21 11:36:47;;;;;;;1.92;0.30;;;;;;;21.04;46.59;102805.53;5052318;27;96582;-30
2022/09/21 11:39:38;;;;;;;1.60;0.43;;;;;;;20.96;44.92;102808.84;5052359;27;96801;-30
2022/09/21 11:42:26;;;;;;;2.47;0.20;;;;;;;20.59;47.95;102808.78;5033426;27;101108;-30
2022/09/21 11:44:59;;;;;;;0.75;0.30;;;;;;;20.27;47.25;102806.47;5052215;27;99147;-30